Terminal Aerodrome Forecast
Issued by NWS Cleveland, OH

Home | Current Version | Previous Version | Graphics & Text | Print | Product List | Glossary On
Versions: 1 2 3 4 5 6 7 8 9 10 11 12 13 14 15 16 17 18 19 20 21 22 23 24
000
FTUS41 KCLE 311800 AAA
TAFTOL
TAF AMD
KTOL 311854Z 3119/0118 24008KT P6SM SCT025 OVC035
     FM010600 24005KT 3SM BR OVC019
     FM010900 20003KT 2SM BR OVC009
     FM011400 22010KT 5SM BR OVC019=

USA.gov is the U.S. government's official web portal to all federal, state and local government web resources and services.